Time;durP1;ratioP1;P1;durP2;ratioP2;P2;SDS_P1;SDS_P2;PMS_P1;PMS_P2;Temp;Humidity;BMP_temperature;BMP_pressure;BME280_temperature;BME280_humidity;BME280_pressure;Samples;Min_cycle;Max_cycle;Signal;HPM_P1;HPM_P2
2022/10/10 00:02:03;;;;;;;;;;;;;;;;;;4994786;28;20624;-61
2022/10/10 00:04:28;;;;;;;;;;;;;;;;;;4993370;28;19927;-60
2022/10/10 00:06:53;;;;;;;;;;;;;;;;;;4991922;28;19918;-62
2022/10/10 00:09:18;;;;;;;;;;;;;;;;;;4995560;28;19925;-61
2022/10/10 00:11:44;;;;;;;;;;;;;;;;;;4992417;28;19921;-61
2022/10/10 00:14:09;;;;;;;;;;;;;;;;;;4997303;28;19922;-61
2022/10/10 00:16:34;;;;;;;;;;;;;;;;;;4989492;28;19924;-61
2022/10/10 00:18:59;;;;;;;;;;;;;;;;;;4994631;28;19921;-60
2022/10/10 00:21:24;;;;;;;;;;;;;;;;;;4983362;28;20005;-61
2022/10/10 00:23:50;;;;;;;;;;;;;;;;;;4994969;28;20165;-61
2022/10/10 00:26:15;;;;;;;;;;;;;;;;;;4985993;28;19952;-60
2022/10/10 00:28:40;;;;;;;;;;;;;;;;;;4994328;28;20589;-61
2022/10/10 00:31:05;;;;;;;;;;;;;;;;;;4995021;28;20275;-60
2022/10/10 00:33:30;;;;;;;;;;;;;;;;;;5002173;28;19958;-61
2022/10/10 00:35:56;;;;;;;;;;;;;;;;;;4966756;28;19941;-61
2022/10/10 00:38:21;;;;;;;;;;;;;;;;;;5004048;28;19928;-60
2022/10/10 00:40:46;;;;;;;;;;;;;;;;;;4999861;28;19926;-61
2022/10/10 00:43:11;;;;;;;;;;;;;;;;;;4998974;28;19929;-60
2022/10/10 00:45:37;;;;;;;;;;;;;;;;;;5000771;28;19917;-61
2022/10/10 00:48:03;;;;;;;;;;;;;;;;;;4997584;28;20004;-60
2022/10/10 00:50:28;;;;;;;;;;;;;;;;;;5002952;28;20292;-61
2022/10/10 00:52:53;;;;;;;;;;;;;;;;;;4997101;28;19925;-61
2022/10/10 00:55:18;;;;;;;;;;;;;;;;;;4997546;28;19972;-61
2022/10/10 00:57:43;;;;;;;;;;;;;;;;;;5001143;28;19971;-60
2022/10/10 01:00:08;;;;;;;;;;;;;;;;;;4984383;28;19917;-61
2022/10/10 01:02:34;;;;;;;;;;;;;;;;;;5003164;28;20393;-61
2022/10/10 01:04:59;;;;;;;;;;;;;;;;;;4995593;28;20060;-61
2022/10/10 01:07:24;;;;;;;;;;;;;;;;;;4974898;28;20020;-61
2022/10/10 01:09:49;;;;;;;;;;;;;;;;;;5003110;28;19936;-60
2022/10/10 01:12:14;;;;;;;;;;;;;;;;;;4994890;28;20400;-61
2022/10/10 01:14:40;;;;;;;;;;;;;;;;;;4985192;28;19940;-60
2022/10/10 01:17:05;;;;;;;;;;;;;;;;;;4997575;28;19913;-60
2022/10/10 01:19:30;;;;;;;;;;;;;;;;;;4993205;28;19925;-62
2022/10/10 01:21:55;;;;;;;;;;;;;;;;;;4985990;28;19925;-61
2022/10/10 01:24:20;;;;;;;;;;;;;;;;;;4994681;28;19944;-61
2022/10/10 01:26:46;;;;;;;;;;;;;;;;;;5001964;28;20421;-60
2022/10/10 01:29:11;;;;;;;;;;;;;;;;;;4996726;28;19925;-61
2022/10/10 01:31:36;;;;;;;;;;;;;;;;;;4997224;28;19922;-60
2022/10/10 01:34:01;;;;;;;;;;;;;;;;;;5004233;28;20020;-60
2022/10/10 01:36:26;;;;;;;;;;;;;;;;;;4994436;28;20481;-60
2022/10/10 01:38:51;;;;;;;;;;;;;;;;;;5001831;28;19921;-60
2022/10/10 01:41:17;;;;;;;;;;;;;;;;;;4995754;28;19961;-60
2022/10/10 01:43:42;;;;;;;;;;;;;;;;;;4995143;28;19952;-62
2022/10/10 01:46:07;;;;;;;;;;;;;;;;;;4998157;28;19917;-59
2022/10/10 01:48:32;;;;;;;;;;;;;;;;;;4995860;28;19933;-61
2022/10/10 01:50:57;;;;;;;;;;;;;;;;;;5002537;28;20428;-60
2022/10/10 01:53:22;;;;;;;;;;;;;;;;;;4999582;28;19917;-60
2022/10/10 01:55:48;;;;;;;;;;;;;;;;;;4999480;28;19949;-60
2022/10/10 01:58:13;;;;;;;;;;;;;;;;;;4999640;28;19918;-61
2022/10/10 02:00:38;;;;;;;;;;;;;;;;;;4978889;28;19924;-60
2022/10/10 02:03:03;;;;;;;;;;;;;;;;;;5002032;28;19929;-61
2022/10/10 02:05:28;;;;;;;;;;;;;;;;;;4995673;28;19982;-61
2022/10/10 02:07:54;;;;;;;;;;;;;;;;;;4997526;28;19927;-61
2022/10/10 02:10:19;;;;;;;;;;;;;;;;;;4999298;28;19929;-60
2022/10/10 02:12:44;;;;;;;;;;;;;;;;;;4977289;28;20615;-60
2022/10/10 02:15:09;;;;;;;;;;;;;;;;;;4999676;28;20007;-61
2022/10/10 02:17:34;;;;;;;;;;;;;;;;;;4995646;28;19976;-61
2022/10/10 02:20:00;;;;;;;;;;;;;;;;;;4993899;28;19944;-60
2022/10/10 02:22:25;;;;;;;;;;;;;;;;;;4999328;28;19923;-61
2022/10/10 02:24:50;;;;;;;;;;;;;;;;;;4992052;28;20707;-61
2022/10/10 02:27:15;;;;;;;;;;;;;;;;;;5000570;28;20603;-60
2022/10/10 02:29:40;;;;;;;;;;;;;;;;;;4994999;28;19926;-61
2022/10/10 02:32:06;;;;;;;;;;;;;;;;;;4998528;28;19918;-61
2022/10/10 02:34:31;;;;;;;;;;;;;;;;;;5004350;28;19913;-60
2022/10/10 02:36:56;;;;;;;;;;;;;;;;;;4998779;28;19918;-62
2022/10/10 02:39:21;;;;;;;;;;;;;;;;;;5005555;28;19920;-60
2022/10/10 02:41:46;;;;;;;;;;;;;;;;;;4997373;28;19924;-61
2022/10/10 02:44:12;;;;;;;;;;;;;;;;;;4997154;28;19917;-60
2022/10/10 02:46:37;;;;;;;;;;;;;;;;;;5003723;28;19924;-60
2022/10/10 02:49:02;;;;;;;;;;;;;;;;;;4994272;28;20729;-60
2022/10/10 02:51:27;;;;;;;;;;;;;;;;;;4999404;28;20020;-60
2022/10/10 02:53:52;;;;;;;;;;;;;;;;;;4991027;28;19918;-60
2022/10/10 02:56:17;;;;;;;;;;;;;;;;;;4994662;28;19922;-61
2022/10/10 02:58:43;;;;;;;;;;;;;;;;;;5003068;28;20026;-60
2022/10/10 03:01:09;;;;;;;;;;;;;;;;;;4996400;28;19917;-60
2022/10/10 03:03:34;;;;;;;;;;;;;;;;;;5002010;28;19933;-60
2022/10/10 03:05:59;;;;;;;;;;;;;;;;;;4995492;28;19918;-61
2022/10/10 03:08:24;;;;;;;;;;;;;;;;;;4996229;28;19983;-60
2022/10/10 03:10:50;;;;;;;;;;;;;;;;;;4999206;28;19921;-60
2022/10/10 03:13:17;;;;;;;;;;;;;;;;;;4995307;28;21685;-60
2022/10/10 03:15:42;;;;;;;;;;;;;;;;;;5002215;28;19918;-60
2022/10/10 03:18:07;;;;;;;;;;;;;;;;;;4995631;28;20025;-60
2022/10/10 03:20:32;;;;;;;;;;;;;;;;;;4995671;28;19944;-60
2022/10/10 03:22:58;;;;;;;;;;;;;;;;;;4998056;28;19929;-61
2022/10/10 03:25:23;;;;;;;;;;;;;;;;;;4998677;28;19922;-60
2022/10/10 03:27:48;;;;;;;;;;;;;;;;;;4999791;28;20654;-61
2022/10/10 03:30:13;;;;;;;;;;;;;;;;;;4975442;28;20075;-60
2022/10/10 03:32:38;;;;;;;;;;;;;;;;;;4992776;28;19917;-60
2022/10/10 03:35:03;;;;;;;;;;;;;;;;;;4999536;28;19964;-63
2022/10/10 03:37:29;;;;;;;;;;;;;;;;;;4979557;28;19917;-60
2022/10/10 03:39:54;;;;;;;;;;;;;;;;;;5002596;28;19957;-61
2022/10/10 03:42:19;;;;;;;;;;;;;;;;;;4992907;28;19921;-60
2022/10/10 03:44:44;;;;;;;;;;;;;;;;;;4996676;28;20281;-60
2022/10/10 03:47:09;;;;;;;;;;;;;;;;;;4998489;28;19923;-60
2022/10/10 03:49:34;;;;;;;;;;;;;;;;;;4994838;28;19925;-61
2022/10/10 03:52:00;;;;;;;;;;;;;;;;;;4997407;28;20009;-61
2022/10/10 03:54:25;;;;;;;;;;;;;;;;;;4978647;28;19924;-61
2022/10/10 03:56:50;;;;;;;;;;;;;;;;;;4996180;28;20686;-61
2022/10/10 03:59:15;;;;;;;;;;;;;;;;;;4998012;28;19917;-64
2022/10/10 04:01:41;;;;;;;;;;;;;;;;;;4999617;28;19922;-59
2022/10/10 04:04:06;;;;;;;;;;;;;;;;;;4993688;28;19918;-61
2022/10/10 04:06:31;;;;;;;;;;;;;;;;;;4984725;28;19918;-61
2022/10/10 04:08:56;;;;;;;;;;;;;;;;;;5001982;28;20005;-61
2022/10/10 04:11:21;;;;;;;;;;;;;;;;;;4986783;28;19928;-60
2022/10/10 04:13:47;;;;;;;;;;;;;;;;;;5001778;28;20000;-61
2022/10/10 04:16:12;;;;;;;;;;;;;;;;;;5003654;28;20027;-61
2022/10/10 04:18:37;;;;;;;;;;;;;;;;;;4986966;28;19979;-60
2022/10/10 04:21:02;;;;;;;;;;;;;;;;;;4997124;28;19917;-61
2022/10/10 04:23:27;;;;;;;;;;;;;;;;;;5003035;28;19917;-61
2022/10/10 04:25:53;;;;;;;;;;;;;;;;;;4981827;28;19921;-60
2022/10/10 04:28:18;;;;;;;;;;;;;;;;;;4986599;28;20373;-61
2022/10/10 04:30:43;;;;;;;;;;;;;;;;;;4999124;28;19917;-60
2022/10/10 04:33:08;;;;;;;;;;;;;;;;;;4998826;28;19917;-61
2022/10/10 04:35:34;;;;;;;;;;;;;;;;;;5003497;28;20071;-63
2022/10/10 04:37:59;;;;;;;;;;;;;;;;;;4996919;28;19952;-61
2022/10/10 04:40:24;;;;;;;;;;;;;;;;;;5004382;28;20472;-62
2022/10/10 04:42:49;;;;;;;;;;;;;;;;;;4998956;28;20305;-61
2022/10/10 04:45:14;;;;;;;;;;;;;;;;;;4998442;28;19917;-61
2022/10/10 04:47:40;;;;;;;;;;;;;;;;;;5006863;28;19956;-61
2022/10/10 04:50:05;;;;;;;;;;;;;;;;;;4997265;28;19929;-61
2022/10/10 04:52:30;;;;;;;;;;;;;;;;;;5003602;28;19955;-61
2022/10/10 04:54:55;;;;;;;;;;;;;;;;;;4985288;28;19918;-61
2022/10/10 04:57:20;;;;;;;;;;;;;;;;;;4981844;28;19921;-60
2022/10/10 04:59:46;;;;;;;;;;;;;;;;;;4990578;28;19942;-60
2022/10/10 05:02:11;;;;;;;;;;;;;;;;;;5005949;28;19933;-61
2022/10/10 05:04:36;;;;;;;;;;;;;;;;;;5013366;28;19920;-61
2022/10/10 05:07:01;;;;;;;;;;;;;;;;;;4985429;28;19922;-61
2022/10/10 05:09:26;;;;;;;;;;;;;;;;;;4996754;28;19925;-60
2022/10/10 05:11:51;;;;;;;;;;;;;;;;;;5001179;28;19929;-60
2022/10/10 05:14:17;;;;;;;;;;;;;;;;;;5003132;28;20069;-60
2022/10/10 05:16:42;;;;;;;;;;;;;;;;;;5010466;28;20293;-61
2022/10/10 05:19:07;;;;;;;;;;;;;;;;;;4997111;28;20005;-60
2022/10/10 05:21:32;;;;;;;;;;;;;;;;;;4996065;28;19920;-60
2022/10/10 05:23:58;;;;;;;;;;;;;;;;;;5003168;28;19930;-60
2022/10/10 05:26:23;;;;;;;;;;;;;;;;;;4996974;28;19940;-60
2022/10/10 05:28:48;;;;;;;;;;;;;;;;;;5000499;28;20386;-61
2022/10/10 05:31:13;;;;;;;;;;;;;;;;;;4995056;28;19921;-59
2022/10/10 05:33:38;;;;;;;;;;;;;;;;;;4970750;28;19929;-60
2022/10/10 05:36:04;;;;;;;;;;;;;;;;;;4999596;28;19921;-60
2022/10/10 05:38:29;;;;;;;;;;;;;;;;;;4996496;28;20610;-60
2022/10/10 05:40:55;;;;;;;;;;;;;;;;;;4997618;28;20399;-59
2022/10/10 05:43:20;;;;;;;;;;;;;;;;;;5009301;28;20598;-60
2022/10/10 05:45:45;;;;;;;;;;;;;;;;;;4997576;28;20316;-60
2022/10/10 05:48:10;;;;;;;;;;;;;;;;;;5000127;28;19929;-61
2022/10/10 05:50:37;;;;;;;;;;;;;;;;;;5003001;28;20040;-60
2022/10/10 05:53:02;;;;;;;;;;;;;;;;;;5006199;28;19917;-63
2022/10/10 05:55:27;;;;;;;;;;;;;;;;;;5007998;28;20297;-59
2022/10/10 05:57:52;;;;;;;;;;;;;;;;;;4984588;28;19918;-60
2022/10/10 06:00:18;;;;;;;;;;;;;;;;;;5009078;28;19917;-59
2022/10/10 06:02:43;;;;;;;;;;;;;;;;;;4987503;28;19917;-58
2022/10/10 06:05:08;;;;;;;;;;;;;;;;;;5005327;28;19960;-60
2022/10/10 06:07:33;;;;;;;;;;;;;;;;;;5008892;28;19917;-58
2022/10/10 06:09:58;;;;;;;;;;;;;;;;;;5008376;28;19933;-59
2022/10/10 06:12:23;;;;;;;;;;;;;;;;;;5009864;28;19957;-58
2022/10/10 06:14:49;;;;;;;;;;;;;;;;;;4991836;28;19924;-58
2022/10/10 06:17:14;;;;;;;;;;;;;;;;;;5007281;28;19917;-58
2022/10/10 06:19:39;;;;;;;;;;;;;;;;;;5005394;28;20004;-58
2022/10/10 06:22:04;;;;;;;;;;;;;;;;;;5005976;28;19929;-58
2022/10/10 06:24:29;;;;;;;;;;;;;;;;;;5002525;28;20654;-58
2022/10/10 06:26:55;;;;;;;;;;;;;;;;;;4989309;28;19924;-58
2022/10/10 06:29:20;;;;;;;;;;;;;;;;;;4990450;28;19925;-58
2022/10/10 06:31:45;;;;;;;;;;;;;;;;;;4990147;28;19925;-58
2022/10/10 06:34:10;;;;;;;;;;;;;;;;;;5007435;28;19921;-59
2022/10/10 06:36:36;;;;;;;;;;;;;;;;;;5006198;28;19922;-59
2022/10/10 06:39:01;;;;;;;;;;;;;;;;;;5007489;28;19947;-61
2022/10/10 06:41:26;;;;;;;;;;;;;;;;;;4987842;28;19924;-61
2022/10/10 06:43:51;;;;;;;;;;;;;;;;;;5000897;28;20731;-59
2022/10/10 06:46:16;;;;;;;;;;;;;;;;;;4980688;28;19918;-58
2022/10/10 06:48:42;;;;;;;;;;;;;;;;;;4998805;28;19933;-58
2022/10/10 06:51:07;;;;;;;;;;;;;;;;;;5000635;28;20000;-58
2022/10/10 06:53:32;;;;;;;;;;;;;;;;;;4990703;28;19922;-58
2022/10/10 06:55:57;;;;;;;;;;;;;;;;;;5003958;28;19960;-58
2022/10/10 06:58:22;;;;;;;;;;;;;;;;;;5001196;28;19967;-58
2022/10/10 07:00:48;;;;;;;;;;;;;;;;;;5003302;28;19918;-59
2022/10/10 07:03:13;;;;;;;;;;;;;;;;;;5002020;28;20318;-59
2022/10/10 07:05:39;;;;;;;;;;;;;;;;;;5000608;28;20385;-60
2022/10/10 07:08:04;;;;;;;;;;;;;;;;;;5001064;28;19924;-60
2022/10/10 07:10:29;;;;;;;;;;;;;;;;;;5002704;28;20025;-58
2022/10/10 07:12:54;;;;;;;;;;;;;;;;;;4984983;28;19944;-58
2022/10/10 07:15:19;;;;;;;;;;;;;;;;;;5003491;28;20683;-58
2022/10/10 07:17:45;;;;;;;;;;;;;;;;;;5003766;28;19921;-59
2022/10/10 07:20:10;;;;;;;;;;;;;;;;;;5002976;28;19956;-59
2022/10/10 07:22:35;;;;;;;;;;;;;;;;;;5004630;28;20167;-58
2022/10/10 07:25:00;;;;;;;;;;;;;;;;;;5001568;28;19925;-58
2022/10/10 07:27:25;;;;;;;;;;;;;;;;;;5000673;28;19917;-59
2022/10/10 07:29:51;;;;;;;;;;;;;;;;;;5002067;28;19929;-59
2022/10/10 07:32:16;;;;;;;;;;;;;;;;;;5001770;28;19999;-58
2022/10/10 07:34:41;;;;;;;;;;;;;;;;;;4998001;28;19921;-58
2022/10/10 07:37:06;;;;;;;;;;;;;;;;;;5004833;28;20298;-60
2022/10/10 07:39:31;;;;;;;;;;;;;;;;;;5003389;28;19917;-58
2022/10/10 07:41:57;;;;;;;;;;;;;;;;;;4999549;28;19964;-58
2022/10/10 07:44:22;;;;;;;;;;;;;;;;;;5001247;28;19917;-58
2022/10/10 07:46:47;;;;;;;;;;;;;;;;;;5004019;28;19972;-59
2022/10/10 07:49:12;;;;;;;;;;;;;;;;;;5001450;28;19935;-59
2022/10/10 07:51:37;;;;;;;;;;;;;;;;;;5002570;28;19921;-58
2022/10/10 07:54:06;;;;;;;;;;;;;;;;;;5001149;28;19918;-59
2022/10/10 07:56:31;;;;;;;;;;;;;;;;;;5000183;28;19921;-59
2022/10/10 07:58:56;;;;;;;;;;;;;;;;;;4972455;28;20966;-59
2022/10/10 08:01:21;;;;;;;;;;;;;;;;;;4998139;28;19952;-58
2022/10/10 08:03:47;;;;;;;;;;;;;;;;;;5000984;28;19917;-59
2022/10/10 08:06:12;;;;;;;;;;;;;;;;;;5003184;28;19917;-59
2022/10/10 08:08:37;;;;;;;;;;;;;;;;;;5003724;28;19952;-59
2022/10/10 08:11:03;;;;;;;;;;;;;;;;;;4986260;28;19926;-59
2022/10/10 08:13:28;;;;;;;;;;;;;;;;;;4989408;28;20012;-59
2022/10/10 08:15:53;;;;;;;;;;;;;;;;;;5000831;28;20047;-59
2022/10/10 08:18:18;;;;;;;;;;;;;;;;;;5000685;28;20499;-59
2022/10/10 08:20:43;;;;;;;;;;;;;;;;;;4999090;28;19917;-59
2022/10/10 08:23:09;;;;;;;;;;;;;;;;;;5003215;28;19924;-58
2022/10/10 08:25:34;;;;;;;;;;;;;;;;;;5003725;28;20019;-59
2022/10/10 08:27:59;;;;;;;;;;;;;;;;;;5003895;28;19918;-59
2022/10/10 08:30:24;;;;;;;;;;;;;;;;;;5002921;28;19932;-59
2022/10/10 08:32:49;;;;;;;;;;;;;;;;;;5003200;28;19928;-59
2022/10/10 08:35:15;;;;;;;;;;;;;;;;;;5002683;28;20784;-58
2022/10/10 08:37:40;;;;;;;;;;;;;;;;;;5004472;28;19921;-59
2022/10/10 08:40:05;;;;;;;;;;;;;;;;;;5004224;28;20007;-59
2022/10/10 08:42:30;;;;;;;;;;;;;;;;;;5003441;28;20059;-59
2022/10/10 08:44:55;;;;;;;;;;;;;;;;;;5003737;28;20512;-59
2022/10/10 08:47:20;;;;;;;;;;;;;;;;;;5006359;28;19914;-58
2022/10/10 08:49:46;;;;;;;;;;;;;;;;;;5006364;28;20012;-59
2022/10/10 08:52:11;;;;;;;;;;;;;;;;;;5004965;28;19964;-58
2022/10/10 08:54:36;;;;;;;;;;;;;;;;;;5008052;28;20317;-59
2022/10/10 08:57:01;;;;;;;;;;;;;;;;;;5004317;28;19927;-59
2022/10/10 08:59:27;;;;;;;;;;;;;;;;;;5001168;28;19952;-59
2022/10/10 09:01:52;;;;;;;;;;;;;;;;;;5002999;28;20385;-59
2022/10/10 09:04:17;;;;;;;;;;;;;;;;;;4997238;28;19925;-59
2022/10/10 09:06:42;;;;;;;;;;;;;;;;;;5003723;28;19917;-59
2022/10/10 09:09:07;;;;;;;;;;;;;;;;;;5006510;28;19987;-58
2022/10/10 09:11:32;;;;;;;;;;;;;;;;;;4990821;28;20007;-59
2022/10/10 09:13:58;;;;;;;;;;;;;;;;;;5011651;28;20288;-60
2022/10/10 09:16:23;;;;;;;;;;;;;;;;;;5005598;28;19917;-60
2022/10/10 09:18:48;;;;;;;;;;;;;;;;;;5004842;28;19917;-60
2022/10/10 09:21:15;;;;;;;;;;;;;;;;;;5004136;28;19960;-61
2022/10/10 09:23:40;;;;;;;;;;;;;;;;;;4988380;28;19922;-60
2022/10/10 09:26:05;;;;;;;;;;;;;;;;;;5003543;28;19925;-61
2022/10/10 09:28:30;;;;;;;;;;;;;;;;;;5004715;28;20016;-59
2022/10/10 09:30:55;;;;;;;;;;;;;;;;;;5006693;28;19914;-60
2022/10/10 09:33:21;;;;;;;;;;;;;;;;;;5003751;28;20274;-60
2022/10/10 09:35:46;;;;;;;;;;;;;;;;;;4996485;28;19979;-60
2022/10/10 09:38:11;;;;;;;;;;;;;;;;;;5005189;28;19928;-61
2022/10/10 09:40:36;;;;;;;;;;;;;;;;;;5007901;28;20338;-60
2022/10/10 09:43:01;;;;;;;;;;;;;;;;;;5007533;28;20369;-60
2022/10/10 09:45:27;;;;;;;;;;;;;;;;;;5005500;28;19963;-60
2022/10/10 09:47:52;;;;;;;;;;;;;;;;;;5003770;28;20076;-60
2022/10/10 09:50:17;;;;;;;;;;;;;;;;;;5002774;28;21069;-60
2022/10/10 09:52:42;;;;;;;;;;;;;;;;;;5002812;28;19928;-57
2022/10/10 09:55:07;;;;;;;;;;;;;;;;;;4986958;28;19924;-60
2022/10/10 09:57:32;;;;;;;;;;;;;;;;;;5001731;28;19924;-59
2022/10/10 09:59:58;;;;;;;;;;;;;;;;;;5002428;28;19917;-60
2022/10/10 10:02:23;;;;;;;;;;;;;;;;;;5000222;28;20028;-59
2022/10/10 10:04:48;;;;;;;;;;;;;;;;;;5002406;28;20356;-59
2022/10/10 10:07:13;;;;;;;;;;;;;;;;;;5002258;28;19973;-59
2022/10/10 10:09:38;;;;;;;;;;;;;;;;;;5001823;28;19988;-59
2022/10/10 10:12:04;;;;;;;;;;;;;;;;;;5005459;28;19918;-59
2022/10/10 10:14:29;;;;;;;;;;;;;;;;;;4986558;28;19947;-59
2022/10/10 10:16:54;;;;;;;;;;;;;;;;;;5005421;28;20008;-60
2022/10/10 10:19:19;;;;;;;;;;;;;;;;;;5004390;28;20411;-61
2022/10/10 10:21:45;;;;;;;;;;;;;;;;;;5006145;28;19953;-61
2022/10/10 10:24:10;;;;;;;;;;;;;;;;;;5002158;28;20001;-59
2022/10/10 10:26:35;;;;;;;;;;;;;;;;;;5003239;28;19917;-60
2022/10/10 10:29:00;;;;;;;;;;;;;;;;;;5005090;28;19925;-60
2022/10/10 10:31:25;;;;;;;;;;;;;;;;;;4987966;28;19964;-60
2022/10/10 10:33:50;;;;;;;;;;;;;;;;;;5003702;28;19923;-60
2022/10/10 10:36:16;;;;;;;;;;;;;;;;;;5000745;28;19922;-59
2022/10/10 10:38:41;;;;;;;;;;;;;;;;;;5001056;28;20389;-60
2022/10/10 10:41:07;;;;;;;;;;;;;;;;;;5005498;28;19925;-60
2022/10/10 10:43:32;;;;;;;;;;;;;;;;;;5006716;28;20004;-60
2022/10/10 10:45:57;;;;;;;;;;;;;;;;;;5001904;28;19992;-59
2022/10/10 10:48:22;;;;;;;;;;;;;;;;;;4995594;28;20501;-60
2022/10/10 10:50:47;;;;;;;;;;;;;;;;;;5006424;28;19929;-60
2022/10/10 10:53:12;;;;;;;;;;;;;;;;;;5003288;28;20004;-60
2022/10/10 10:55:38;;;;;;;;;;;;;;;;;;5009757;28;19917;-59
2022/10/10 10:58:03;;;;;;;;;;;;;;;;;;5007340;28;19960;-60
2022/10/10 11:00:28;;;;;;;;;;;;;;;;;;5003384;28;19918;-60
2022/10/10 11:02:53;;;;;;;;;;;;;;;;;;5005812;28;19924;-60
2022/10/10 11:05:18;;;;;;;;;;;;;;;;;;5005263;28;19963;-60
2022/10/10 11:07:44;;;;;;;;;;;;;;;;;;4986328;28;19959;-60
2022/10/10 11:10:09;;;;;;;;;;;;;;;;;;5002298;28;20019;-60
2022/10/10 11:12:34;;;;;;;;;;;;;;;;;;5006863;28;19972;-60
2022/10/10 11:14:59;;;;;;;;;;;;;;;;;;5002295;28;19960;-61
2022/10/10 11:17:24;;;;;;;;;;;;;;;;;;5004381;28;19925;-60
2022/10/10 11:19:55;;;;;;;;;;;;;;;;;;5001374;28;20755;-61
2022/10/10 11:22:20;;;;;;;;;;;;;;;;;;5001292;28;19917;-61
2022/10/10 11:24:45;;;;;;;;;;;;;;;;;;5000689;28;19945;-62
2022/10/10 11:27:11;;;;;;;;;;;;;;;;;;4999421;28;19917;-61
2022/10/10 11:29:36;;;;;;;;;;;;;;;;;;5001463;28;19994;-60
2022/10/10 11:32:01;;;;;;;;;;;;;;;;;;4981976;28;19918;-61
2022/10/10 11:34:27;;;;;;;;;;;;;;;;;;5004410;28;19921;-61
2022/10/10 11:36:52;;;;;;;;;;;;;;;;;;4999342;28;20752;-61
2022/10/10 11:39:17;;;;;;;;;;;;;;;;;;4999284;28;19928;-60
2022/10/10 11:41:42;;;;;;;;;;;;;;;;;;4998122;28;19968;-61
2022/10/10 11:44:07;;;;;;;;;;;;;;;;;;4982414;28;19940;-61
2022/10/10 11:46:33;;;;;;;;;;;;;;;;;;5003154;28;19924;-61
2022/10/10 11:48:58;;;;;;;;;;;;;;;;;;5001071;28;20020;-61
2022/10/10 11:51:23;;;;;;;;;;;;;;;;;;4987394;28;20404;-61
2022/10/10 11:53:49;;;;;;;;;;;;;;;;;;5003356;28;19917;-61
2022/10/10 11:56:14;;;;;;;;;;;;;;;;;;5000318;28;20349;-61
2022/10/10 11:58:39;;;;;;;;;;;;;;;;;;5000153;28;19999;-62
2022/10/10 12:01:05;;;;;;;;;;;;;;;;;;5006238;28;20164;-61
2022/10/10 12:03:30;;;;;;;;;;;;;;;;;;5004432;28;20047;-59
2022/10/10 12:05:55;;;;;;;;;;;;;;;;;;5002004;28;20340;-61
2022/10/10 12:08:20;;;;;;;;;;;;;;;;;;5003646;28;19945;-61
2022/10/10 12:10:46;;;;;;;;;;;;;;;;;;5003360;28;19988;-59
2022/10/10 12:13:11;;;;;;;;;;;;;;;;;;5004473;28;19957;-58
2022/10/10 12:15:36;;;;;;;;;;;;;;;;;;4988151;28;20627;-58
2022/10/10 12:18:01;;;;;;;;;;;;;;;;;;5007187;28;19997;-59
2022/10/10 12:20:27;;;;;;;;;;;;;;;;;;4986895;28;20008;-59
2022/10/10 12:22:52;;;;;;;;;;;;;;;;;;5003773;28;19967;-58
2022/10/10 12:25:17;;;;;;;;;;;;;;;;;;5005200;28;19918;-59
2022/10/10 12:27:42;;;;;;;;;;;;;;;;;;5009278;28;19921;-61
2022/10/10 12:30:08;;;;;;;;;;;;;;;;;;5010223;28;19951;-59
2022/10/10 12:32:33;;;;;;;;;;;;;;;;;;5005919;28;20743;-60
2022/10/10 12:34:58;;;;;;;;;;;;;;;;;;5009234;28;20443;-60
2022/10/10 12:37:26;;;;;;;;;;;;;;;;;;5008450;28;19972;-60
2022/10/10 12:39:52;;;;;;;;;;;;;;;;;;5009079;28;19924;-60
2022/10/10 12:42:17;;;;;;;;;;;;;;;;;;5006880;28;19921;-60
2022/10/10 12:44:42;;;;;;;;;;;;;;;;;;5007935;28;19922;-60
2022/10/10 12:47:07;;;;;;;;;;;;;;;;;;5009737;28;19924;-60
2022/10/10 12:49:32;;;;;;;;;;;;;;;;;;5007933;28;19929;-61
2022/10/10 12:51:58;;;;;;;;;;;;;;;;;;5010572;28;20001;-61
2022/10/10 12:54:23;;;;;;;;;;;;;;;;;;5007226;28;19928;-60
2022/10/10 12:56:48;;;;;;;;;;;;;;;;;;5006631;28;19997;-61
2022/10/10 12:59:13;;;;;;;;;;;;;;;;;;5006149;28;19953;-61
2022/10/10 13:01:39;;;;;;;;;;;;;;;;;;5007865;28;19924;-61
2022/10/10 13:04:04;;;;;;;;;;;;;;;;;;5009680;28;19940;-61
2022/10/10 13:06:29;;;;;;;;;;;;;;;;;;5006921;28;19968;-61
2022/10/10 13:08:54;;;;;;;;;;;;;;;;;;4996438;28;19926;-61
2022/10/10 13:11:19;;;;;;;;;;;;;;;;;;5008250;28;19920;-61
2022/10/10 13:13:44;;;;;;;;;;;;;;;;;;5004092;28;19918;-60
2022/10/10 13:16:10;;;;;;;;;;;;;;;;;;5003687;28;19921;-61
2022/10/10 13:18:35;;;;;;;;;;;;;;;;;;5006893;28;20304;-61
2022/10/10 13:21:00;;;;;;;;;;;;;;;;;;5004044;28;20406;-61
2022/10/10 13:23:25;;;;;;;;;;;;;;;;;;5004156;28;20653;-60
2022/10/10 13:25:51;;;;;;;;;;;;;;;;;;5007035;28;19956;-61
2022/10/10 13:28:16;;;;;;;;;;;;;;;;;;5002894;28;19961;-60
2022/10/10 13:30:41;;;;;;;;;;;;;;;;;;4989677;28;19999;-61
2022/10/10 13:33:06;;;;;;;;;;;;;;;;;;5005126;28;19925;-60
2022/10/10 13:35:31;;;;;;;;;;;;;;;;;;5006506;28;19918;-62
2022/10/10 13:37:57;;;;;;;;;;;;;;;;;;4992015;28;20270;-60
2022/10/10 13:40:22;;;;;;;;;;;;;;;;;;4988543;28;20429;-60
2022/10/10 13:42:47;;;;;;;;;;;;;;;;;;4989791;28;19917;-61
2022/10/10 13:45:12;;;;;;;;;;;;;;;;;;5006210;28;19922;-61
2022/10/10 13:47:37;;;;;;;;;;;;;;;;;;4988071;28;20419;-60
2022/10/10 13:50:02;;;;;;;;;;;;;;;;;;4990753;28;19929;-61
2022/10/10 13:52:28;;;;;;;;;;;;;;;;;;5009300;28;19917;-61
2022/10/10 13:54:53;;;;;;;;;;;;;;;;;;5009591;28;19956;-61
2022/10/10 13:57:18;;;;;;;;;;;;;;;;;;5004452;28;19967;-61
2022/10/10 13:59:43;;;;;;;;;;;;;;;;;;4987114;28;19917;-62
2022/10/10 14:02:09;;;;;;;;;;;;;;;;;;5006319;28;20384;-62
2022/10/10 14:04:34;;;;;;;;;;;;;;;;;;4986763;28;19918;-62
2022/10/10 14:06:59;;;;;;;;;;;;;;;;;;5004169;28;19968;-62
2022/10/10 14:09:24;;;;;;;;;;;;;;;;;;5000878;28;19921;-62
2022/10/10 14:11:49;;;;;;;;;;;;;;;;;;5004617;28;19929;-62
2022/10/10 14:14:15;;;;;;;;;;;;;;;;;;5004385;28;19920;-61
2022/10/10 14:16:40;;;;;;;;;;;;;;;;;;5009320;28;20352;-62
2022/10/10 14:19:05;;;;;;;;;;;;;;;;;;5006892;28;20381;-62
2022/10/10 14:21:30;;;;;;;;;;;;;;;;;;5009196;28;19992;-62
2022/10/10 14:23:56;;;;;;;;;;;;;;;;;;5004157;28;19924;-62
2022/10/10 14:26:21;;;;;;;;;;;;;;;;;;5006248;28;19923;-62
2022/10/10 14:28:46;;;;;;;;;;;;;;;;;;5004115;28;19971;-62
2022/10/10 14:31:11;;;;;;;;;;;;;;;;;;5003580;28;19931;-61
2022/10/10 14:33:36;;;;;;;;;;;;;;;;;;5002269;28;19924;-62
2022/10/10 14:36:02;;;;;;;;;;;;;;;;;;5006967;28;20343;-61
2022/10/10 14:38:27;;;;;;;;;;;;;;;;;;5006359;28;19920;-61
2022/10/10 14:40:52;;;;;;;;;;;;;;;;;;5005161;28;19925;-61
2022/10/10 14:43:19;;;;;;;;;;;;;;;;;;5005971;28;19991;-61
2022/10/10 14:45:44;;;;;;;;;;;;;;;;;;5003596;28;19921;-61
2022/10/10 14:48:09;;;;;;;;;;;;;;;;;;5004040;28;20334;-61
2022/10/10 14:50:34;;;;;;;;;;;;;;;;;;4944383;28;1763121;-61
2022/10/10 14:53:00;;;;;;;;;;;;;;;;;;5007287;28;19952;-61
2022/10/10 14:55:25;;;;;;;;;;;;;;;;;;5006968;28;19968;-62
2022/10/10 14:57:50;;;;;;;;;;;;;;;;;;4994654;28;19917;-61
2022/10/10 15:00:15;;;;;;;;;;;;;;;;;;5005345;28;19970;-62
2022/10/10 15:02:40;;;;;;;;;;;;;;;;;;5004873;28;19917;-61
2022/10/10 15:05:06;;;;;;;;;;;;;;;;;;5003186;28;20381;-62
2022/10/10 15:07:31;;;;;;;;;;;;;;;;;;5006508;28;20640;-61
2022/10/10 15:09:56;;;;;;;;;;;;;;;;;;5006055;28;19957;-62
2022/10/10 15:12:21;;;;;;;;;;;;;;;;;;5005419;28;19967;-61
2022/10/10 15:14:46;;;;;;;;;;;;;;;;;;5004208;28;19971;-62
2022/10/10 15:17:12;;;;;;;;;;;;;;;;;;5003840;28;19917;-61
2022/10/10 15:19:37;;;;;;;;;;;;;;;;;;5004248;28;19924;-62
2022/10/10 15:22:02;;;;;;;;;;;;;;;;;;5006905;28;20186;-62
2022/10/10 15:24:27;;;;;;;;;;;;;;;;;;5005264;28;19917;-62
2022/10/10 15:26:52;;;;;;;;;;;;;;;;;;5002993;28;19953;-62
2022/10/10 15:29:18;;;;;;;;;;;;;;;;;;5001320;28;19951;-63
2022/10/10 15:31:43;;;;;;;;;;;;;;;;;;5005749;28;20350;-62
2022/10/10 15:34:08;;;;;;;;;;;;;;;;;;5002449;28;19918;-62
2022/10/10 15:36:33;;;;;;;;;;;;;;;;;;5003696;28;19921;-62
2022/10/10 15:38:58;;;;;;;;;;;;;;;;;;5001536;28;19918;-62
2022/10/10 15:41:24;;;;;;;;;;;;;;;;;;5000284;28;20357;-62
2022/10/10 15:43:53;;;;;;;;;;;;;;;;;;5002007;28;19928;-62
2022/10/10 15:46:18;;;;;;;;;;;;;;;;;;5002088;28;19918;-61
2022/10/10 15:48:43;;;;;;;;;;;;;;;;;;5000663;28;19917;-62
2022/10/10 15:51:08;;;;;;;;;;;;;;;;;;5003817;28;19936;-62
2022/10/10 15:53:34;;;;;;;;;;;;;;;;;;5000019;28;19923;-62
2022/10/10 15:55:59;;;;;;;;;;;;;;;;;;5001509;28;19917;-62
2022/10/10 15:58:24;;;;;;;;;;;;;;;;;;5000854;28;20266;-62
2022/10/10 16:00:49;;;;;;;;;;;;;;;;;;5002724;28;20016;-62
2022/10/10 16:03:14;;;;;;;;;;;;;;;;;;5003903;28;19921;-62
2022/10/10 16:05:40;;;;;;;;;;;;;;;;;;4990931;28;20562;-61
2022/10/10 16:08:05;;;;;;;;;;;;;;;;;;5000620;28;19924;-62
2022/10/10 16:10:30;;;;;;;;;;;;;;;;;;5001550;28;19932;-62
2022/10/10 16:12:55;;;;;;;;;;;;;;;;;;5002104;28;19928;-62
2022/10/10 16:15:20;;;;;;;;;;;;;;;;;;5002451;28;19917;-62
2022/10/10 16:17:45;;;;;;;;;;;;;;;;;;5003722;28;19992;-62
2022/10/10 16:20:11;;;;;;;;;;;;;;;;;;5002549;28;19924;-62
2022/10/10 16:22:36;;;;;;;;;;;;;;;;;;4997253;28;19922;-62
2022/10/10 16:25:01;;;;;;;;;;;;;;;;;;4982260;28;19929;-61
2022/10/10 16:27:27;;;;;;;;;;;;;;;;;;4992982;28;19921;-61
2022/10/10 16:29:52;;;;;;;;;;;;;;;;;;4996095;28;20020;-60
2022/10/10 16:32:17;;;;;;;;;;;;;;;;;;4991760;28;19954;-61